createdAt,value
2022-07-29T00:02:00.140Z,99134.50
2022-07-29T00:07:03.584Z,99138.22
2022-07-29T00:12:07.627Z,99140.16
2022-07-29T00:17:15.426Z,99129.28
2022-07-29T00:22:23.040Z,99150.22
2022-07-29T00:27:26.500Z,99155.66
2022-07-29T00:32:31.347Z,99149.75
2022-07-29T00:37:34.848Z,99143.13
2022-07-29T00:42:44.869Z,99160.47
2022-07-29T00:47:49.907Z,99158.84
2022-07-29T00:52:54.629Z,99161.59
2022-07-29T00:57:59.305Z,99161.75
2022-07-29T01:03:04.613Z,99167.97
2022-07-29T01:08:08.774Z,99159.38
2022-07-29T01:13:12.923Z,99159.53
2022-07-29T01:18:24.274Z,99158.72
2022-07-29T01:23:54.603Z,99163.97
2022-07-29T01:29:08.203Z,99164.91
2022-07-29T01:34:16.304Z,99161.56
2022-07-29T01:39:25.871Z,99173.78
2022-07-29T01:44:35.175Z,99170.44
2022-07-29T01:49:41.392Z,99165.59
2022-07-29T01:54:50.046Z,99171.66
2022-07-29T01:59:56.447Z,99181.00
2022-07-29T02:05:02.483Z,99181.00
2022-07-29T02:10:08.741Z,99176.81
2022-07-29T02:15:14.408Z,99179.22
2022-07-29T02:20:19.314Z,99178.44
2022-07-29T02:25:24.976Z,99175.53
2022-07-29T02:30:44.547Z,99189.44
2022-07-29T02:35:49.502Z,99176.88
2022-07-29T02:40:54.711Z,99184.41
2022-07-29T02:46:01.862Z,99155.78
2022-07-29T02:51:10.848Z,99182.19
2022-07-29T02:56:38.693Z,99171.59
2022-07-29T03:01:46.115Z,99175.56
2022-07-29T03:06:52.934Z,99182.16
2022-07-29T03:11:58.060Z,99184.41
2022-07-29T03:17:03.158Z,99174.41
2022-07-29T03:22:06.623Z,99190.97
2022-07-29T03:27:10.000Z,99186.63
2022-07-29T03:32:14.771Z,99184.44
2022-07-29T03:37:27.542Z,99192.69
2022-07-29T03:42:35.193Z,99188.41
2022-07-29T03:47:50.903Z,99192.94
2022-07-29T03:52:55.674Z,99181.94
2022-07-29T03:57:59.611Z,99182.81
2022-07-29T04:03:05.978Z,99187.91
2022-07-29T04:08:14.118Z,99191.41
2022-07-29T04:13:17.473Z,99187.94
2022-07-29T04:18:23.153Z,99201.28
2022-07-29T04:23:27.532Z,99198.09
2022-07-29T04:28:31.079Z,99196.06
2022-07-29T04:33:36.049Z,99213.16
2022-07-29T04:38:40.211Z,99205.81
2022-07-29T04:43:43.581Z,99215.50
2022-07-29T04:48:49.350Z,99220.84
2022-07-29T04:53:52.783Z,99225.44
2022-07-29T04:58:56.150Z,99234.34
2022-07-29T05:04:01.812Z,99221.50
2022-07-29T05:09:06.955Z,99227.22
2022-07-29T05:14:10.328Z,99229.19
2022-07-29T05:19:16.673Z,99225.69
2022-07-29T05:24:20.308Z,99217.72
2022-07-29T05:29:45.019Z,99224.69
2022-07-29T05:34:50.919Z,99230.84
2022-07-29T05:39:57.089Z,99231.72
2022-07-29T05:45:00.958Z,99227.66
2022-07-29T05:50:06.832Z,99221.22
2022-07-29T05:55:11.058Z,99219.38
2022-07-29T06:00:15.176Z,99218.84
2022-07-29T06:05:20.140Z,99220.66
2022-07-29T06:10:23.973Z,99219.09
2022-07-29T06:15:30.278Z,99212.09
2022-07-29T06:20:35.225Z,99215.09
2022-07-29T06:25:38.769Z,99209.59
2022-07-29T06:30:42.571Z,99218.06
2022-07-29T06:35:53.567Z,99207.41
2022-07-29T06:41:05.048Z,99210.84
2022-07-29T06:46:11.909Z,99202.69
2022-07-29T06:51:22.692Z,99196.03
2022-07-29T06:56:27.011Z,99201.06
2022-07-29T07:01:30.477Z,99203.09
2022-07-29T07:06:35.582Z,99203.81
2022-07-29T07:11:39.018Z,99208.50
2022-07-29T07:16:42.641Z,99200.16
2022-07-29T07:21:47.563Z,99201.00
2022-07-29T07:26:51.011Z,99205.91
2022-07-29T07:31:58.919Z,99200.16
2022-07-29T07:37:05.955Z,99204.34
2022-07-29T07:42:11.487Z,99209.66
2022-07-29T07:47:15.158Z,99196.00
2022-07-29T07:52:22.128Z,99210.63
2022-07-29T07:57:25.676Z,99211.38
2022-07-29T08:02:29.554Z,99205.13
2022-07-29T08:07:34.888Z,99216.31
2022-07-29T08:12:38.411Z,99218.13
2022-07-29T08:17:42.686Z,99205.44
2022-07-29T08:22:48.149Z,99203.34
2022-07-29T08:27:51.723Z,99196.38
2022-07-29T08:32:56.129Z,99201.06
2022-07-29T08:38:01.541Z,99197.41
2022-07-29T08:43:09.987Z,99185.50
2022-07-29T08:48:14.519Z,99193.38
2022-07-29T08:53:21.070Z,99190.81
2022-07-29T08:58:25.783Z,99194.47
2022-07-29T09:03:33.531Z,99192.84
2022-07-29T09:08:38.571Z,99194.94
2022-07-29T09:13:42.227Z,99192.25
2022-07-29T09:18:47.251Z,99190.44
2022-07-29T09:24:09.288Z,99187.16
2022-07-29T09:29:15.111Z,99193.75
2022-07-29T09:34:23.634Z,99187.97
2022-07-29T09:39:33.133Z,99191.88
2022-07-29T09:44:51.138Z,99189.91
2022-07-29T09:49:59.105Z,99189.03
2022-07-29T09:55:09.792Z,99202.25
2022-07-29T10:00:16.965Z,99198.41
2022-07-29T10:05:23.422Z,99180.34
2022-07-29T10:10:30.116Z,99169.38
2022-07-29T10:15:38.182Z,99202.78
2022-07-29T10:20:42.363Z,99200.22
2022-07-29T10:25:47.922Z,99201.78
2022-07-29T10:30:54.138Z,99194.28
2022-07-29T10:36:07.446Z,99197.03
2022-07-29T10:41:44.413Z,99184.50
2022-07-29T10:46:49.154Z,99190.22
2022-07-29T10:52:06.928Z,99192.22
2022-07-29T10:57:25.916Z,99189.09
2022-07-29T11:02:50.117Z,99198.94
2022-07-29T11:08:21.264Z,99191.06
2022-07-29T11:13:52.571Z,99189.69
2022-07-29T11:19:26.421Z,99195.28
2022-07-29T11:24:35.618Z,99193.44
2022-07-29T11:29:49.860Z,99185.50
2022-07-29T11:35:17.732Z,99177.06
2022-07-29T11:40:23.133Z,99182.03
2022-07-29T11:45:48.441Z,99187.28
2022-07-29T11:50:52.478Z,99190.28
2022-07-29T11:55:58.375Z,99186.28
2022-07-29T12:01:04.298Z,99184.25
2022-07-29T12:06:17.997Z,99173.91
2022-07-29T12:11:23.411Z,99172.34
2022-07-29T12:16:37.120Z,99180.69
2022-07-29T12:21:56.497Z,99184.78
2022-07-29T12:27:02.400Z,99174.41
2022-07-29T12:32:15.056Z,99179.72
2022-07-29T12:37:35.738Z,99168.75
2022-07-29T12:43:10.628Z,99166.28
2022-07-29T12:48:16.179Z,99166.22
2022-07-29T12:53:19.622Z,99161.75
2022-07-29T12:58:30.926Z,99177.34
2022-07-29T13:03:57.132Z,99150.69
2022-07-29T13:09:09.768Z,99167.50
2022-07-29T13:14:14.680Z,99168.41
2022-07-29T13:19:19.414Z,99166.88
2022-07-29T13:24:23.356Z,99161.28
2022-07-29T13:29:31.363Z,99164.38
2022-07-29T13:34:36.414Z,99167.50
2022-07-29T13:39:40.143Z,99162.72
2022-07-29T13:44:43.373Z,99176.13
2022-07-29T13:49:48.452Z,99170.19
2022-07-29T13:54:52.146Z,99175.59
2022-07-29T13:59:55.184Z,99175.75
2022-07-29T14:05:01.174Z,99163.63
2022-07-29T14:10:08.730Z,99156.06
2022-07-29T14:15:12.281Z,99164.69
2022-07-29T14:20:17.739Z,99164.56
2022-07-29T14:25:21.184Z,99162.47
2022-07-29T14:30:26.972Z,99159.44
2022-07-29T14:35:31.798Z,99160.75
2022-07-29T14:40:35.393Z,99155.81
2022-07-29T14:45:38.769Z,99163.69
2022-07-29T14:50:43.634Z,99168.84
2022-07-29T14:55:47.499Z,99194.19
2022-07-29T15:00:50.795Z,99211.94
2022-07-29T15:05:55.761Z,99240.94
2022-07-29T15:11:00.496Z,99227.16
2022-07-29T15:16:04.175Z,99243.81
2022-07-29T15:21:09.543Z,99239.66
2022-07-29T15:26:13.042Z,99237.59
2022-07-29T15:31:16.479Z,99240.06
2022-07-29T15:36:50.209Z,99241.03
2022-07-29T15:41:45.125Z,99240.19
2022-07-29T15:47:07.519Z,99227.22
2022-07-29T15:52:12.790Z,99231.50
2022-07-29T15:57:16.292Z,99234.06
2022-07-29T16:02:19.800Z,99240.94
2022-07-29T16:07:25.427Z,99237.97
2022-07-29T16:12:34.876Z,99236.81
2022-07-29T16:17:38.961Z,99240.16
2022-07-29T16:22:43.939Z,99226.03
2022-07-29T16:27:47.368Z,99240.84
2022-07-29T16:32:50.713Z,99247.06
2022-07-29T16:42:58.447Z,99239.69
2022-07-29T16:48:02.724Z,99247.56
2022-07-29T16:53:08.683Z,99237.91
2022-07-29T16:58:13.431Z,99241.34
2022-07-29T17:03:16.767Z,99243.84
2022-07-29T17:08:21.481Z,99233.31
2022-07-29T17:13:24.904Z,99249.97
2022-07-29T17:18:28.395Z,99262.53
2022-07-29T17:23:33.094Z,99266.13
2022-07-29T17:28:36.736Z,99272.34
2022-07-29T17:33:40.035Z,99275.06
2022-07-29T17:38:44.903Z,99271.63
2022-07-29T17:43:48.444Z,99278.50
2022-07-29T17:48:52.294Z,99280.16
2022-07-29T17:53:58.311Z,99280.72
2022-07-29T17:59:06.640Z,99279.72
2022-07-29T18:04:10.341Z,99283.81
2022-07-29T18:09:15.093Z,99279.06
2022-07-29T18:14:18.406Z,99284.56
2022-07-29T18:19:21.947Z,99277.03
2022-07-29T18:24:29.184Z,99275.56
2022-07-29T18:29:32.678Z,99285.56
2022-07-29T18:34:35.985Z,99276.13
2022-07-29T18:39:40.704Z,99270.16
2022-07-29T18:44:49.140Z,99280.13
2022-07-29T18:49:52.717Z,99283.78
2022-07-29T18:54:57.482Z,99276.19
2022-07-29T19:00:00.906Z,99291.34
2022-07-29T19:05:04.302Z,99283.75
2022-07-29T19:10:10.228Z,99289.25
2022-07-29T19:15:19.993Z,99293.09
2022-07-29T19:20:24.169Z,99294.41
2022-07-29T19:25:28.979Z,99295.34
2022-07-29T19:30:33.496Z,99291.31
2022-07-29T19:35:36.793Z,99295.97
2022-07-29T19:40:41.738Z,99297.94
2022-07-29T19:45:46.199Z,99293.03
2022-07-29T19:50:49.269Z,99302.72
2022-07-29T19:55:54.110Z,99291.75
2022-07-29T20:00:57.548Z,99297.25
2022-07-29T20:06:00.859Z,99301.91
2022-07-29T20:11:06.039Z,99299.47
2022-07-29T20:16:09.495Z,99311.06
2022-07-29T20:21:12.946Z,99322.53
2022-07-29T20:26:18.763Z,99313.84
2022-07-29T20:31:22.256Z,99321.97
2022-07-29T20:36:25.662Z,99322.97
2022-07-29T20:41:30.420Z,99322.06
2022-07-29T20:46:34.273Z,99327.53
2022-07-29T20:51:43.525Z,99337.38
2022-07-29T20:56:48.844Z,99337.56
2022-07-29T21:01:52.252Z,99338.81
2022-07-29T21:06:55.595Z,99348.75
2022-07-29T21:12:00.814Z,99355.09
2022-07-29T21:17:06.153Z,99358.06
2022-07-29T21:22:09.724Z,99361.84
2022-07-29T21:27:31.938Z,99365.63
2022-07-29T21:32:35.338Z,99361.97
2022-07-29T21:37:38.760Z,99366.78
2022-07-29T21:42:43.634Z,99375.53
2022-07-29T21:47:49.122Z,99370.50
2022-07-29T21:52:52.431Z,99378.63
2022-07-29T21:57:57.758Z,99383.03
2022-07-29T22:03:02.028Z,99384.16
2022-07-29T22:08:05.674Z,99383.47
2022-07-29T22:13:10.444Z,99390.66
2022-07-29T22:18:13.768Z,99383.00
2022-07-29T22:23:24.186Z,99396.31
2022-07-29T22:28:29.010Z,99400.78
2022-07-29T22:33:32.303Z,99396.56
2022-07-29T22:38:35.818Z,99394.97
2022-07-29T22:43:41.298Z,99402.91
2022-07-29T22:48:44.726Z,99411.78
2022-07-29T22:53:48.165Z,99410.97
2022-07-29T22:58:55.452Z,99417.19
2022-07-29T23:03:58.846Z,99429.56
2022-07-29T23:09:02.209Z,99433.13
2022-07-29T23:14:06.911Z,99425.34
2022-07-29T23:19:12.976Z,99409.91
2022-07-29T23:24:16.380Z,99424.63
2022-07-29T23:29:21.109Z,99419.41
2022-07-29T23:34:24.409Z,99423.06
2022-07-29T23:39:27.739Z,99417.03
2022-07-29T23:44:32.439Z,99424.13
2022-07-29T23:49:35.969Z,99424.34
2022-07-29T23:54:39.287Z,99420.88
2022-07-29T23:59:44.160Z,99420.00
